createdAt,value
2018-02-19T00:00:26.445Z,0.00
2018-02-19T00:01:26.457Z,0.00
2018-02-19T00:02:26.468Z,0.00
2018-02-19T00:03:26.478Z,0.00
2018-02-19T00:04:26.489Z,0.00
2018-02-19T00:05:26.499Z,0.00
2018-02-19T00:06:26.508Z,0.00
2018-02-19T00:07:26.522Z,0.00
2018-02-19T00:08:26.529Z,0.00
2018-02-19T00:09:26.540Z,0.00
2018-02-19T00:10:26.551Z,0.00
2018-02-19T00:11:26.562Z,0.00
2018-02-19T00:12:26.572Z,0.00
2018-02-19T00:13:26.582Z,0.00
2018-02-19T00:14:26.592Z,0.00
2018-02-19T00:15:26.604Z,0.00
2018-02-19T00:16:26.613Z,0.00
2018-02-19T00:17:26.624Z,0.00
2018-02-19T00:18:26.635Z,0.00
2018-02-19T00:19:26.646Z,0.00
2018-02-19T00:20:26.654Z,0.00
2018-02-19T00:21:26.665Z,0.00
2018-02-19T00:22:26.676Z,0.00
2018-02-19T00:23:26.687Z,0.00
2018-02-19T00:24:26.697Z,0.00
2018-02-19T00:25:26.755Z,0.00
2018-02-19T00:26:26.718Z,0.00
2018-02-19T00:27:26.729Z,0.00
2018-02-19T00:28:26.741Z,0.00
2018-02-19T00:29:26.748Z,0.00
2018-02-19T00:30:26.760Z,0.00
2018-02-19T00:31:26.770Z,0.00
2018-02-19T00:32:26.782Z,0.00
2018-02-19T00:33:26.791Z,0.00
2018-02-19T00:34:26.802Z,0.00
2018-02-19T00:35:26.812Z,0.00
2018-02-19T00:36:26.822Z,0.00
2018-02-19T00:37:26.833Z,0.00
2018-02-19T00:38:26.843Z,0.00
2018-02-19T00:39:26.853Z,0.00
2018-02-19T00:40:26.864Z,0.00
2018-02-19T00:41:26.874Z,0.00
2018-02-19T00:42:26.886Z,0.00
2018-02-19T00:43:26.897Z,0.00
2018-02-19T00:44:26.905Z,0.00
2018-02-19T00:45:26.916Z,0.00
2018-02-19T00:46:26.927Z,0.00
2018-02-19T00:47:26.939Z,0.00
2018-02-19T00:48:26.947Z,0.00
2018-02-19T00:49:26.958Z,0.00
2018-02-19T00:50:26.969Z,0.00
2018-02-19T00:51:26.977Z,0.00
2018-02-19T00:52:26.988Z,0.00
2018-02-19T00:53:26.998Z,0.00
2018-02-19T00:54:27.009Z,0.00
2018-02-19T00:55:27.021Z,0.00
2018-02-19T00:56:27.029Z,0.00
2018-02-19T00:57:27.039Z,0.00
2018-02-19T00:58:27.050Z,0.00
2018-02-19T00:59:27.061Z,0.00
2018-02-19T01:00:27.072Z,0.00
2018-02-19T01:01:27.080Z,0.00
2018-02-19T01:02:27.092Z,0.00
2018-02-19T01:03:27.102Z,0.00
2018-02-19T01:04:27.112Z,0.00
2018-02-19T01:05:27.123Z,0.00
2018-02-19T01:06:27.133Z,0.00
2018-02-19T01:07:27.144Z,0.00
2018-02-19T01:08:27.154Z,0.00
2018-02-19T01:09:27.165Z,0.00
2018-02-19T01:10:27.183Z,0.00
2018-02-19T01:11:27.184Z,0.00
2018-02-19T01:12:27.195Z,0.00
2018-02-19T01:13:27.205Z,0.00
2018-02-19T01:14:27.216Z,0.00
2018-02-19T01:15:27.226Z,0.00
2018-02-19T01:16:27.236Z,0.00
2018-02-19T01:17:27.246Z,0.00
2018-02-19T01:18:27.257Z,0.00
2018-02-19T01:19:27.267Z,0.00
2018-02-19T01:20:27.295Z,0.00
2018-02-19T01:21:27.287Z,0.00
2018-02-19T01:22:27.298Z,0.00
2018-02-19T01:23:27.310Z,0.00
2018-02-19T01:24:27.320Z,0.00
2018-02-19T01:25:27.329Z,0.00
2018-02-19T01:26:27.337Z,0.00
2018-02-19T01:27:27.349Z,0.00
2018-02-19T01:28:27.360Z,0.00
2018-02-19T01:29:27.370Z,0.00
2018-02-19T01:30:27.380Z,0.00
2018-02-19T01:31:27.390Z,0.00
2018-02-19T01:32:27.400Z,0.00
2018-02-19T01:33:27.410Z,0.00
2018-02-19T01:34:27.422Z,0.00
2018-02-19T01:35:27.431Z,0.00
2018-02-19T01:36:27.442Z,0.00
2018-02-19T01:37:27.452Z,0.00
2018-02-19T01:38:27.462Z,0.00
2018-02-19T01:39:27.473Z,0.00
2018-02-19T01:40:27.482Z,0.00
2018-02-19T01:41:27.494Z,0.00
2018-02-19T01:42:27.504Z,0.00
2018-02-19T01:43:27.515Z,0.00
2018-02-19T01:44:27.527Z,0.00
2018-02-19T01:45:27.533Z,0.00
2018-02-19T01:46:27.546Z,0.00
2018-02-19T01:47:27.556Z,0.00
2018-02-19T01:48:27.566Z,0.00
2018-02-19T01:49:27.577Z,0.00
2018-02-19T01:50:27.587Z,0.00
2018-02-19T01:51:27.602Z,0.00
2018-02-19T01:52:27.608Z,0.00
2018-02-19T01:53:27.619Z,0.00
2018-02-19T01:54:27.627Z,0.00
2018-02-19T01:55:27.638Z,0.00
2018-02-19T01:56:27.647Z,0.00
2018-02-19T01:57:27.659Z,0.00
2018-02-19T01:58:27.668Z,0.00
2018-02-19T01:59:27.678Z,0.00
2018-02-19T02:00:27.689Z,0.00
2018-02-19T02:01:27.700Z,0.00
2018-02-19T02:02:27.712Z,0.00
2018-02-19T02:03:27.718Z,0.00
2018-02-19T02:04:27.729Z,0.00
2018-02-19T02:05:27.741Z,0.00
2018-02-19T02:06:27.751Z,0.00
2018-02-19T02:07:27.760Z,0.00
2018-02-19T02:08:27.770Z,0.00
2018-02-19T02:09:27.780Z,0.00
2018-02-19T02:10:27.791Z,0.00
2018-02-19T02:11:27.802Z,0.00
2018-02-19T02:12:27.813Z,0.00
2018-02-19T02:13:27.824Z,0.00
2018-02-19T02:14:27.833Z,0.00
2018-02-19T02:15:27.843Z,0.00
2018-02-19T02:16:27.850Z,0.00
2018-02-19T02:17:27.864Z,0.00
2018-02-19T02:18:27.873Z,0.00
2018-02-19T02:19:27.883Z,0.00
2018-02-19T02:20:27.994Z,0.00
2018-02-19T02:21:27.906Z,0.00
2018-02-19T02:22:27.915Z,0.00
2018-02-19T02:23:27.926Z,0.00
2018-02-19T02:24:27.938Z,0.00
2018-02-19T02:25:27.945Z,0.00
2018-02-19T02:26:27.954Z,0.00
2018-02-19T02:27:27.963Z,0.00
2018-02-19T02:28:27.975Z,0.00
2018-02-19T02:29:28.084Z,0.00
2018-02-19T02:30:27.995Z,0.00
2018-02-19T02:31:28.005Z,0.00
2018-02-19T02:32:28.014Z,0.00
2018-02-19T02:33:28.024Z,0.00
2018-02-19T02:34:28.036Z,0.00
2018-02-19T02:35:28.045Z,0.00
2018-02-19T02:36:28.055Z,0.00
2018-02-19T02:37:28.065Z,0.00
2018-02-19T02:38:28.076Z,0.00
2018-02-19T02:39:28.085Z,0.00
2018-02-19T02:40:28.100Z,0.00
2018-02-19T02:41:28.108Z,0.00
2018-02-19T02:42:28.117Z,0.00
2018-02-19T02:43:28.129Z,0.00
2018-02-19T02:44:28.136Z,0.00
2018-02-19T02:45:28.144Z,0.00
2018-02-19T02:46:28.156Z,0.00
2018-02-19T02:47:28.166Z,0.00
2018-02-19T02:48:28.176Z,0.00
2018-02-19T02:49:28.187Z,0.00
2018-02-19T02:50:28.198Z,0.00
2018-02-19T02:51:28.207Z,0.00
2018-02-19T02:52:28.219Z,0.00
2018-02-19T02:53:28.227Z,0.00
2018-02-19T02:54:28.239Z,0.00
2018-02-19T02:55:28.251Z,0.00
2018-02-19T02:56:28.258Z,0.00
2018-02-19T02:57:28.276Z,0.00
2018-02-19T02:58:28.277Z,0.00
2018-02-19T02:59:28.290Z,0.00
2018-02-19T03:00:28.299Z,0.00
2018-02-19T03:01:28.309Z,0.00
2018-02-19T03:02:28.318Z,0.00
2018-02-19T03:03:28.331Z,0.00
2018-02-19T03:04:28.339Z,0.00
2018-02-19T03:05:28.348Z,0.00
2018-02-19T03:06:28.361Z,0.00
2018-02-19T03:07:28.368Z,0.00
2018-02-19T03:08:28.377Z,0.00
2018-02-19T03:09:28.390Z,0.00
2018-02-19T03:10:28.400Z,0.00
2018-02-19T03:11:28.412Z,0.00
2018-02-19T03:12:28.418Z,0.00
2018-02-19T03:13:28.429Z,0.00
2018-02-19T03:14:28.439Z,0.00
2018-02-19T03:15:28.449Z,0.00
2018-02-19T03:16:28.459Z,0.00
2018-02-19T03:17:28.471Z,0.00
2018-02-19T03:18:28.479Z,0.00
2018-02-19T03:19:28.492Z,0.00
2018-02-19T03:20:28.499Z,0.00
2018-02-19T03:21:28.510Z,0.00
2018-02-19T03:22:28.521Z,0.00
2018-02-19T03:23:28.530Z,0.00
2018-02-19T03:24:28.540Z,0.00
2018-02-19T03:25:28.550Z,0.00
2018-02-19T03:26:28.562Z,0.00
2018-02-19T03:27:28.575Z,0.00
2018-02-19T03:28:28.581Z,0.00
2018-02-19T03:29:28.593Z,0.00
2018-02-19T03:30:28.703Z,0.00
2018-02-19T03:31:28.613Z,0.00
2018-02-19T03:32:28.622Z,0.00
2018-02-19T03:33:28.632Z,0.00
2018-02-19T03:34:28.643Z,0.00
2018-02-19T03:35:28.687Z,0.00
2018-02-19T03:36:28.665Z,0.00
2018-02-19T03:37:28.672Z,0.00
2018-02-19T03:38:28.683Z,0.00
2018-02-19T03:39:28.692Z,0.00
2018-02-19T03:40:28.703Z,0.00
2018-02-19T03:41:28.714Z,0.00
2018-02-19T03:42:28.724Z,0.00
2018-02-19T03:43:28.734Z,0.00
2018-02-19T03:44:28.743Z,0.00
2018-02-19T03:45:28.754Z,0.00
2018-02-19T03:46:28.768Z,0.00
2018-02-19T03:47:28.777Z,0.00
2018-02-19T03:48:28.790Z,0.00
2018-02-19T03:49:28.794Z,0.00
2018-02-19T03:50:28.806Z,0.00
2018-02-19T03:51:28.815Z,0.00
2018-02-19T03:52:28.825Z,0.00
2018-02-19T03:53:28.837Z,0.00
2018-02-19T03:54:28.846Z,0.00
2018-02-19T03:55:28.857Z,0.00
2018-02-19T03:56:28.870Z,0.00
2018-02-19T03:57:28.877Z,0.00
2018-02-19T03:58:28.886Z,0.00
2018-02-19T03:59:28.898Z,0.00
2018-02-19T04:00:28.909Z,0.00
2018-02-19T04:01:28.919Z,0.00
2018-02-19T04:02:28.933Z,0.00
2018-02-19T04:03:28.939Z,0.00
2018-02-19T04:04:28.948Z,0.00
2018-02-19T04:05:28.957Z,0.00
2018-02-19T04:06:28.969Z,0.00
2018-02-19T04:07:28.977Z,0.00
2018-02-19T04:08:28.987Z,0.00
2018-02-19T04:09:28.998Z,0.00
2018-02-19T04:10:29.011Z,0.00
2018-02-19T04:11:29.019Z,0.00
2018-02-19T04:12:29.029Z,0.00
2018-02-19T04:13:29.038Z,0.00
2018-02-19T04:14:29.049Z,0.00
2018-02-19T04:15:29.060Z,0.00
2018-02-19T04:16:29.069Z,0.00
2018-02-19T04:17:29.079Z,0.00
2018-02-19T04:18:29.089Z,0.00
2018-02-19T04:19:29.100Z,0.00
2018-02-19T04:20:29.110Z,0.00
2018-02-19T04:21:29.121Z,0.00
2018-02-19T04:22:29.128Z,0.00
2018-02-19T04:23:29.140Z,0.00
2018-02-19T04:24:29.150Z,0.00
2018-02-19T04:25:29.159Z,0.00
2018-02-19T04:26:29.168Z,0.00
2018-02-19T04:27:29.179Z,0.00
2018-02-19T04:28:29.188Z,0.00
2018-02-19T04:29:29.199Z,0.00
2018-02-19T04:30:29.209Z,0.00
2018-02-19T04:31:29.219Z,0.00
2018-02-19T04:32:29.232Z,0.00
2018-02-19T04:33:29.240Z,0.00
2018-02-19T04:34:29.250Z,0.00
2018-02-19T04:35:29.263Z,0.00
2018-02-19T04:36:29.269Z,0.00
2018-02-19T04:37:29.280Z,0.00
2018-02-19T04:38:29.389Z,4.00
2018-02-19T04:39:29.301Z,4.00
2018-02-19T04:40:29.310Z,4.00
2018-02-19T04:41:29.319Z,4.00
2018-02-19T04:42:29.330Z,4.00
2018-02-19T04:43:29.340Z,4.00
2018-02-19T04:44:29.349Z,4.00
2018-02-19T04:45:29.359Z,4.00
2018-02-19T04:46:29.370Z,4.00
2018-02-19T04:47:29.380Z,4.00
2018-02-19T04:48:29.388Z,4.00
2018-02-19T04:49:29.399Z,4.00
2018-02-19T04:50:29.409Z,4.00
2018-02-19T04:51:29.420Z,4.00
2018-02-19T04:52:29.425Z,4.00
2018-02-19T04:53:29.430Z,4.00
2018-02-19T04:54:29.441Z,4.00
2018-02-19T04:55:29.450Z,4.00
2018-02-19T04:56:29.460Z,4.00
2018-02-19T04:57:29.470Z,4.00
2018-02-19T04:58:29.482Z,4.00
2018-02-19T04:59:29.492Z,4.00
2018-02-19T05:00:29.499Z,4.00
2018-02-19T05:01:29.511Z,4.00
2018-02-19T05:02:29.520Z,4.00
2018-02-19T05:03:29.530Z,4.00
2018-02-19T05:04:29.540Z,4.00
2018-02-19T05:05:29.550Z,4.00
2018-02-19T05:06:29.560Z,4.00
2018-02-19T05:07:29.569Z,4.00
2018-02-19T05:08:29.580Z,4.00
2018-02-19T05:09:29.588Z,4.00
2018-02-19T05:10:29.601Z,4.00
2018-02-19T05:11:29.611Z,4.00
2018-02-19T05:12:29.618Z,4.00
2018-02-19T05:13:29.628Z,4.00
2018-02-19T05:14:29.639Z,4.00
2018-02-19T05:15:29.652Z,4.00
2018-02-19T05:16:29.658Z,4.00
2018-02-19T05:17:29.719Z,4.00
2018-02-19T05:18:29.679Z,4.00
2018-02-19T05:19:29.688Z,4.00
2018-02-19T05:20:29.698Z,4.00
2018-02-19T05:21:29.707Z,4.00
2018-02-19T05:22:29.720Z,4.00
2018-02-19T05:23:29.727Z,4.00
2018-02-19T05:24:29.736Z,4.00
2018-02-19T05:25:29.748Z,4.00
2018-02-19T05:26:29.758Z,4.00
2018-02-19T05:27:29.768Z,4.00
2018-02-19T05:28:29.777Z,4.00
2018-02-19T05:29:29.787Z,4.00
2018-02-19T05:30:29.801Z,4.00
2018-02-19T05:31:29.806Z,4.00
2018-02-19T05:32:29.817Z,4.00
2018-02-19T05:33:29.826Z,4.00
2018-02-19T05:34:29.837Z,4.00
2018-02-19T05:35:29.847Z,4.00
2018-02-19T05:36:29.856Z,4.00
2018-02-19T05:37:29.868Z,4.00
2018-02-19T05:38:29.877Z,4.00
2018-02-19T05:39:29.887Z,4.00
2018-02-19T05:40:29.895Z,4.00
2018-02-19T05:41:29.907Z,4.00
2018-02-19T05:42:29.917Z,4.00
2018-02-19T05:43:29.927Z,4.00
2018-02-19T05:44:29.937Z,4.00
2018-02-19T05:45:29.949Z,4.00
2018-02-19T05:46:29.956Z,4.00
2018-02-19T05:47:29.968Z,4.00
2018-02-19T05:48:29.975Z,4.00
2018-02-19T05:49:29.991Z,4.00
2018-02-19T05:50:29.997Z,4.00
2018-02-19T05:51:30.009Z,4.00
2018-02-19T05:52:30.015Z,4.00
2018-02-19T05:53:30.027Z,4.00
2018-02-19T05:54:30.035Z,4.00
2018-02-19T05:55:30.045Z,4.00
2018-02-19T05:56:30.055Z,4.00
2018-02-19T05:57:30.066Z,4.00
2018-02-19T05:58:30.074Z,4.00
2018-02-19T05:59:30.087Z,4.00
2018-02-19T06:00:30.095Z,4.00
2018-02-19T06:01:30.105Z,4.00
2018-02-19T06:02:30.123Z,4.00
2018-02-19T06:03:30.126Z,4.00
2018-02-19T06:04:30.136Z,4.00
2018-02-19T06:05:30.145Z,4.00
2018-02-19T06:06:30.155Z,4.00
2018-02-19T06:07:30.165Z,4.00
2018-02-19T06:08:30.175Z,4.00
2018-02-19T06:09:30.185Z,4.00
2018-02-19T06:10:30.195Z,4.00
2018-02-19T06:11:30.208Z,8.00
2018-02-19T06:12:30.217Z,8.00
2018-02-19T06:13:30.223Z,8.00
2018-02-19T06:14:30.235Z,4.00
2018-02-19T06:15:30.245Z,8.00
2018-02-19T06:16:30.256Z,8.00
2018-02-19T06:17:30.265Z,8.00
2018-02-19T06:18:30.276Z,8.00
2018-02-19T06:19:30.284Z,8.00
2018-02-19T06:20:30.293Z,8.00
2018-02-19T06:21:30.304Z,12.00
2018-02-19T06:22:30.315Z,12.00
2018-02-19T06:23:30.324Z,16.00
2018-02-19T06:24:30.336Z,16.00
2018-02-19T06:25:30.344Z,16.00
2018-02-19T06:26:30.354Z,20.00
2018-02-19T06:27:30.365Z,24.00
2018-02-19T06:28:30.375Z,28.00
2018-02-19T06:29:30.384Z,28.00
2018-02-19T06:30:30.397Z,36.00
2018-02-19T06:31:30.404Z,40.00
2018-02-19T06:32:30.414Z,44.00
2018-02-19T06:33:30.422Z,48.00
2018-02-19T06:34:30.434Z,52.00
2018-02-19T06:35:30.445Z,56.00
2018-02-19T06:36:30.458Z,60.00
2018-02-19T06:37:30.464Z,64.00
2018-02-19T06:38:30.474Z,76.00
2018-02-19T06:39:30.485Z,80.00
2018-02-19T06:40:30.493Z,84.00
2018-02-19T06:41:30.503Z,92.00
2018-02-19T06:42:30.512Z,96.00
2018-02-19T06:43:30.523Z,108.00
2018-02-19T06:44:30.533Z,112.00
2018-02-19T06:45:30.541Z,120.00
2018-02-19T06:46:30.551Z,132.00
2018-02-19T06:47:30.562Z,144.00
2018-02-19T06:48:30.577Z,152.00
2018-02-19T06:49:30.582Z,164.00
2018-02-19T06:50:30.592Z,176.00
2018-02-19T06:51:30.603Z,188.00
2018-02-19T06:52:30.613Z,196.00
2018-02-19T06:53:30.620Z,208.00
2018-02-19T06:54:30.732Z,220.00
2018-02-19T06:55:30.642Z,232.00
2018-02-19T06:56:30.652Z,240.00
2018-02-19T06:57:30.660Z,248.00
2018-02-19T06:58:30.671Z,260.00
2018-02-19T06:59:30.683Z,272.00
2018-02-19T07:00:30.692Z,284.00
2018-02-19T07:01:30.701Z,296.00
2018-02-19T07:02:30.710Z,308.00
2018-02-19T07:03:30.720Z,316.00
2018-02-19T07:04:30.731Z,320.00
2018-02-19T07:05:30.742Z,332.00
2018-02-19T07:06:30.751Z,340.00
2018-02-19T07:07:30.761Z,352.00
2018-02-19T07:08:30.770Z,360.00
2018-02-19T07:09:30.780Z,376.00
2018-02-19T07:10:30.792Z,384.00
2018-02-19T07:11:30.800Z,396.00
2018-02-19T07:12:30.812Z,408.00
2018-02-19T07:13:30.820Z,420.00
2018-02-19T07:14:30.831Z,440.00
2018-02-19T07:15:30.839Z,456.00
2018-02-19T07:16:30.849Z,472.00
2018-02-19T07:17:30.859Z,488.00
2018-02-19T07:18:30.869Z,508.00
2018-02-19T07:19:30.879Z,516.00
2018-02-19T07:20:30.889Z,532.00
2018-02-19T07:21:30.898Z,548.00
2018-02-19T07:22:30.908Z,564.00
2018-02-19T07:23:30.918Z,588.00
2018-02-19T07:24:30.931Z,608.00
2018-02-19T07:25:30.937Z,632.00
2018-02-19T07:26:30.952Z,660.00
2018-02-19T07:27:30.958Z,688.00
2018-02-19T07:28:30.969Z,712.00
2018-02-19T07:29:30.980Z,744.00
2018-02-19T07:30:30.992Z,772.00
2018-02-19T07:31:30.998Z,796.00
2018-02-19T07:32:31.008Z,828.00
2018-02-19T07:33:31.007Z,852.00
2018-02-19T07:34:31.017Z,872.00
2018-02-19T07:35:31.912Z,896.00
2018-02-19T07:36:31.048Z,916.00
2018-02-19T07:37:31.052Z,940.00
2018-02-19T07:38:31.059Z,968.00
2018-02-19T07:39:31.166Z,1000.00
2018-02-19T07:40:31.077Z,1032.00
2018-02-19T07:41:31.087Z,1064.00
2018-02-19T07:42:31.099Z,1088.00
2018-02-19T07:43:31.109Z,1108.00
2018-02-19T07:44:31.116Z,1128.00
2018-02-19T07:45:31.125Z,1156.00
2018-02-19T07:46:31.137Z,1180.00
2018-02-19T07:47:31.147Z,1200.00
2018-02-19T07:48:31.156Z,1220.00
2018-02-19T07:49:31.168Z,1228.00
2018-02-19T07:50:31.179Z,1240.00
2018-02-19T07:51:31.188Z,1256.00
2018-02-19T07:52:31.251Z,1268.00
2018-02-19T07:53:32.477Z,1284.00
2018-02-19T07:54:31.219Z,1300.00
2018-02-19T07:55:31.230Z,1328.00
2018-02-19T07:56:31.238Z,1364.00
2018-02-19T07:57:31.249Z,1404.00
2018-02-19T07:58:31.260Z,1448.00
2018-02-19T07:59:31.270Z,1500.00
2018-02-19T08:00:31.390Z,1508.00
2018-02-19T08:01:31.289Z,1544.00
2018-02-19T08:02:31.301Z,1572.00
2018-02-19T08:03:31.311Z,1612.00
2018-02-19T08:04:31.321Z,1644.00
2018-02-19T08:05:31.332Z,1676.00
2018-02-19T08:06:31.342Z,1720.00
2018-02-19T08:07:31.353Z,1700.00
2018-02-19T08:08:31.362Z,1700.00
2018-02-19T08:10:31.393Z,1716.00
2018-02-19T08:11:31.393Z,1736.00
2018-02-19T08:12:31.470Z,1756.00
2018-02-19T08:13:31.416Z,1788.00
2018-02-19T08:14:31.429Z,1808.00
2018-02-19T08:15:31.435Z,1840.00
2018-02-19T08:16:31.445Z,1828.00
2018-02-19T08:17:31.456Z,1812.00
2018-02-19T08:18:31.466Z,1784.00
2018-02-19T08:19:31.493Z,1772.00
2018-02-19T08:20:31.497Z,1776.00
2018-02-19T08:21:31.509Z,1796.00
2018-02-19T08:22:31.509Z,1836.00
2018-02-19T08:23:31.532Z,1860.00
2018-02-19T08:24:31.527Z,1884.00
2018-02-19T08:25:31.545Z,1912.00
2018-02-19T08:26:31.549Z,1944.00
2018-02-19T08:27:31.560Z,1984.00
2018-02-19T08:28:31.571Z,2076.00
2018-02-19T08:29:31.594Z,2192.00
2018-02-19T08:30:31.592Z,2188.00
2018-02-19T08:31:31.609Z,2412.00
2018-02-19T08:32:31.614Z,2384.00
2018-02-19T08:33:32.498Z,2508.00
2018-02-19T08:34:31.628Z,2568.00
2018-02-19T08:35:31.648Z,2572.00
2018-02-19T08:36:31.648Z,2504.00
2018-02-19T08:37:31.687Z,2448.00
2018-02-19T08:38:31.771Z,2488.00
2018-02-19T08:39:31.682Z,2608.00
2018-02-19T08:40:31.690Z,2656.00
2018-02-19T08:41:31.701Z,2812.00
2018-02-19T08:42:31.725Z,2824.00
2018-02-19T08:43:31.724Z,2820.00
2018-02-19T08:44:31.733Z,2892.00
2018-02-19T08:45:32.372Z,2852.00
2018-02-19T08:46:31.758Z,2868.00
2018-02-19T08:47:31.765Z,2812.00
2018-02-19T08:48:31.778Z,2772.00
2018-02-19T08:49:31.786Z,2736.00
2018-02-19T08:50:31.798Z,2788.00
2018-02-19T08:51:31.811Z,2688.00
2018-02-19T08:52:31.819Z,2584.00
2018-02-19T08:53:32.409Z,2500.00
2018-02-19T08:55:31.851Z,2352.00
2018-02-19T08:56:31.862Z,2388.00
2018-02-19T08:57:31.873Z,2380.00
2018-02-19T08:58:31.887Z,2460.00
2018-02-19T08:59:31.912Z,2332.00
2018-02-19T09:00:31.908Z,2528.00
2018-02-19T09:01:31.915Z,2348.00
2018-02-19T09:02:31.927Z,2392.00
2018-02-19T09:03:31.952Z,2364.00
2018-02-19T09:04:31.949Z,2408.00
2018-02-19T09:05:31.987Z,2372.00
2018-02-19T09:06:31.971Z,2560.00
2018-02-19T09:07:31.983Z,2364.00
2018-02-19T09:08:31.992Z,2444.00
2018-02-19T09:09:32.004Z,2408.00
2018-02-19T09:10:32.016Z,2396.00
2018-02-19T09:11:32.027Z,2376.00
2018-02-19T09:12:32.038Z,2360.00
2018-02-19T09:13:32.065Z,2288.00
2018-02-19T09:14:32.061Z,2236.00
2018-02-19T09:15:32.070Z,2180.00
2018-02-19T09:16:32.081Z,2116.00
2018-02-19T09:17:32.094Z,1964.00
2018-02-19T09:18:32.103Z,1888.00
2018-02-19T09:19:32.122Z,1804.00
2018-02-19T09:20:32.138Z,1768.00
2018-02-19T09:21:32.137Z,1740.00
2018-02-19T09:22:32.160Z,1728.00
2018-02-19T09:23:32.169Z,1752.00
2018-02-19T09:24:32.217Z,1880.00
2018-02-19T09:25:32.180Z,2100.00
2018-02-19T09:26:32.190Z,1928.00
2018-02-19T09:27:32.201Z,1912.00
2018-02-19T09:28:32.223Z,2084.00
2018-02-19T09:29:32.234Z,1992.00
2018-02-19T09:30:32.234Z,2388.00
2018-02-19T09:31:32.244Z,2124.00
2018-02-19T09:32:32.253Z,2292.00
2018-02-19T09:33:32.276Z,2276.00
2018-02-19T09:34:32.275Z,2560.00
2018-02-19T09:35:32.298Z,2660.00
2018-02-19T09:36:32.561Z,2816.00
2018-02-19T09:37:32.319Z,2708.00
2018-02-19T09:38:32.329Z,2972.00
2018-02-19T09:40:32.340Z,3320.00
2018-02-19T09:41:32.352Z,3308.00
2018-02-19T09:42:32.556Z,3404.00
2018-02-19T09:43:32.373Z,3448.00
2018-02-19T09:44:32.395Z,3348.00
2018-02-19T09:45:32.394Z,3372.00
2018-02-19T09:46:32.406Z,3192.00
2018-02-19T09:47:32.428Z,3292.00
2018-02-19T09:48:32.439Z,3232.00
2018-02-19T09:49:32.440Z,3400.00
2018-02-19T09:50:32.448Z,3480.00
2018-02-19T09:51:32.473Z,3524.00
2018-02-19T09:52:32.682Z,3496.00
2018-02-19T09:53:32.493Z,3596.00
2018-02-19T09:54:32.492Z,4224.00
2018-02-19T09:55:32.530Z,4356.00
2018-02-19T09:56:32.514Z,4100.00
2018-02-19T09:57:32.574Z,4424.00
2018-02-19T09:58:32.589Z,4320.00
2018-02-19T09:59:32.558Z,4468.00
2018-02-19T10:00:32.574Z,4088.00
2018-02-19T10:01:32.581Z,3976.00
2018-02-19T10:02:32.581Z,4128.00
2018-02-19T10:03:32.594Z,4244.00
2018-02-19T10:04:32.615Z,4288.00
2018-02-19T10:05:32.664Z,4244.00
2018-02-19T10:06:32.626Z,4224.00
2018-02-19T10:07:32.639Z,4556.00
2018-02-19T10:08:32.651Z,4364.00
2018-02-19T10:09:32.661Z,4176.00
2018-02-19T10:10:32.672Z,4064.00
2018-02-19T10:11:32.684Z,4144.00
2018-02-19T10:12:33.104Z,4164.00
2018-02-19T10:13:32.706Z,4116.00
2018-02-19T10:14:32.720Z,4020.00
2018-02-19T10:15:32.729Z,3692.00
2018-02-19T10:16:32.741Z,3660.00
2018-02-19T10:17:32.754Z,3880.00
2018-02-19T10:18:32.766Z,3668.00
2018-02-19T10:19:32.788Z,3672.00
2018-02-19T10:20:32.798Z,3708.00
2018-02-19T10:21:32.803Z,3844.00
2018-02-19T10:22:32.821Z,3752.00
2018-02-19T10:23:32.821Z,3688.00
2018-02-19T10:24:32.836Z,3508.00
2018-02-19T10:25:32.843Z,3540.00
2018-02-19T10:26:32.854Z,3668.00
2018-02-19T10:27:32.968Z,3736.00
2018-02-19T10:28:32.890Z,3976.00
2018-02-19T10:29:32.888Z,3924.00
2018-02-19T10:30:32.901Z,3816.00
2018-02-19T10:31:33.304Z,4224.00
2018-02-19T10:32:32.924Z,4076.00
2018-02-19T10:33:32.998Z,3920.00
2018-02-19T10:34:32.948Z,4096.00
2018-02-19T10:35:32.962Z,3980.00
2018-02-19T10:36:32.970Z,4032.00
2018-02-19T10:37:32.985Z,4192.00
2018-02-19T10:38:32.993Z,4212.00
2018-02-19T10:39:33.008Z,4380.00
2018-02-19T10:40:33.019Z,4424.00
2018-02-19T10:41:33.030Z,4092.00
2018-02-19T10:42:33.042Z,4140.00
2018-02-19T10:43:33.054Z,4328.00
2018-02-19T10:44:33.076Z,4160.00
2018-02-19T10:45:33.078Z,4320.00
2018-02-19T10:46:33.100Z,4136.00
2018-02-19T10:47:33.112Z,4224.00
2018-02-19T10:48:33.115Z,4440.00
2018-02-19T10:49:33.136Z,4336.00
2018-02-19T10:50:33.144Z,4264.00
2018-02-19T10:51:33.161Z,4332.00
2018-02-19T10:52:33.161Z,4492.00
2018-02-19T10:53:33.174Z,4324.00
2018-02-19T10:54:33.185Z,4388.00
2018-02-19T10:55:33.197Z,4236.00
2018-02-19T10:56:33.208Z,4212.00
2018-02-19T10:57:33.293Z,4212.00
2018-02-19T10:58:33.244Z,4204.00
2018-02-19T10:59:33.245Z,4148.00
2018-02-19T11:00:33.257Z,4192.00
2018-02-19T11:01:33.271Z,4208.00
2018-02-19T11:02:33.282Z,4300.00
2018-02-19T11:03:33.294Z,4396.00
2018-02-19T11:04:33.310Z,4368.00
2018-02-19T11:05:33.320Z,4384.00
2018-02-19T11:06:33.330Z,4396.00
2018-02-19T11:07:33.355Z,4436.00
2018-02-19T11:08:33.360Z,4492.00
2018-02-19T11:09:33.368Z,4544.00
2018-02-19T11:10:33.382Z,4772.00
2018-02-19T11:11:33.392Z,4560.00
2018-02-19T11:12:33.404Z,4544.00
2018-02-19T11:13:33.417Z,4568.00
2018-02-19T11:14:33.462Z,4700.00
2018-02-19T11:15:33.441Z,4684.00
2018-02-19T11:16:33.453Z,4652.00
2018-02-19T11:17:33.465Z,4556.00
2018-02-19T11:18:33.476Z,4592.00
2018-02-19T11:19:33.498Z,4640.00
2018-02-19T11:20:33.501Z,4656.00
2018-02-19T11:21:33.514Z,4668.00
2018-02-19T11:22:33.526Z,4656.00
2018-02-19T11:23:33.537Z,4672.00
2018-02-19T11:24:33.549Z,4644.00
2018-02-19T11:25:33.574Z,4664.00
2018-02-19T11:26:33.575Z,4612.00
2018-02-19T11:27:33.590Z,4608.00
2018-02-19T11:28:33.611Z,4644.00
2018-02-19T11:29:33.613Z,4560.00
2018-02-19T11:30:33.636Z,4564.00
2018-02-19T11:31:33.638Z,4544.00
2018-02-19T11:32:33.825Z,4512.00
2018-02-19T11:33:33.660Z,4496.00
2018-02-19T11:34:33.684Z,4468.00
2018-02-19T11:35:33.695Z,4472.00
2018-02-19T11:36:33.711Z,4472.00
2018-02-19T11:37:33.708Z,4476.00
2018-02-19T11:38:33.722Z,4528.00
2018-02-19T11:39:33.733Z,4556.00
2018-02-19T11:40:33.746Z,4668.00
2018-02-19T11:41:33.759Z,4580.00
2018-02-19T11:42:33.782Z,4624.00
2018-02-19T11:43:33.794Z,4680.00
2018-02-19T11:44:33.808Z,4732.00
2018-02-19T11:45:33.820Z,4848.00
2018-02-19T11:46:33.830Z,4752.00
2018-02-19T11:47:33.843Z,4672.00
2018-02-19T11:48:33.845Z,4700.00
2018-02-19T11:49:33.857Z,4744.00
2018-02-19T11:50:33.871Z,4744.00
2018-02-19T11:51:33.885Z,4844.00
2018-02-19T11:52:33.905Z,4816.00
2018-02-19T11:53:33.909Z,4892.00
2018-02-19T11:54:33.933Z,5116.00
2018-02-19T11:55:34.001Z,5272.00
2018-02-19T11:56:33.945Z,5176.00
2018-02-19T11:57:33.960Z,5360.00
2018-02-19T11:58:33.973Z,5156.00
2018-02-19T11:59:33.983Z,5156.00
2018-02-19T12:00:34.007Z,5112.00
2018-02-19T12:01:34.006Z,5156.00
2018-02-19T12:02:34.019Z,5224.00
2018-02-19T12:03:34.033Z,5116.00
2018-02-19T12:04:34.058Z,5480.00
2018-02-19T12:05:34.671Z,5168.00
2018-02-19T12:06:34.069Z,5120.00
2018-02-19T12:07:34.090Z,5188.00
2018-02-19T12:08:34.102Z,5240.00
2018-02-19T12:09:34.109Z,5244.00
2018-02-19T12:10:34.133Z,5212.00
2018-02-19T12:11:34.133Z,5260.00
2018-02-19T12:12:34.144Z,5404.00
2018-02-19T12:13:34.158Z,5368.00
2018-02-19T12:14:34.181Z,5300.00
2018-02-19T12:15:34.183Z,5680.00
2018-02-19T12:16:34.197Z,5256.00
2018-02-19T12:17:34.218Z,5152.00
2018-02-19T12:18:34.233Z,5040.00
2018-02-19T12:19:34.236Z,5040.00
2018-02-19T12:20:34.249Z,5100.00
2018-02-19T12:21:34.259Z,5684.00
2018-02-19T12:22:34.274Z,5028.00
2018-02-19T12:23:34.297Z,4576.00
2018-02-19T12:24:34.301Z,4496.00
2018-02-19T12:25:34.310Z,4488.00
2018-02-19T12:26:34.335Z,4460.00
2018-02-19T12:27:34.335Z,4460.00
2018-02-19T12:28:34.360Z,4540.00
2018-02-19T12:29:34.361Z,4400.00
2018-02-19T12:30:34.376Z,4364.00
2018-02-19T12:31:34.400Z,4384.00
2018-02-19T12:32:34.400Z,4452.00
2018-02-19T12:33:34.423Z,4488.00
2018-02-19T12:34:34.425Z,4560.00
2018-02-19T12:35:34.438Z,4480.00
2018-02-19T12:36:34.450Z,4548.00
2018-02-19T12:37:34.463Z,4656.00
2018-02-19T12:38:34.487Z,4884.00
2018-02-19T12:39:34.516Z,4944.00
2018-02-19T12:40:34.512Z,4916.00
2018-02-19T12:41:34.526Z,4972.00
2018-02-19T12:42:34.527Z,5072.00
2018-02-19T12:43:34.546Z,5196.00
2018-02-19T12:44:34.563Z,5040.00
2018-02-19T12:45:34.564Z,4932.00
2018-02-19T12:46:34.579Z,4684.00